createdAt,value
2022-08-07T00:00:36.584Z,51.323429
2022-08-07T00:01:43.574Z,51.323402
2022-08-07T00:02:41.536Z,51.323406
2022-08-07T00:03:36.573Z,51.323433
2022-08-07T00:04:35.549Z,51.323387
2022-08-07T00:05:36.285Z,51.323318
2022-08-07T00:06:36.464Z,51.323322
2022-08-07T00:07:40.410Z,51.323341
2022-08-07T00:08:36.422Z,51.323391
2022-08-07T00:09:36.408Z,51.323383
2022-08-07T00:10:35.383Z,51.323364
2022-08-07T00:11:35.361Z,51.323433
2022-08-07T00:12:36.409Z,51.323441
2022-08-07T00:13:36.328Z,51.323399
2022-08-07T00:14:36.311Z,51.323387
2022-08-07T00:15:38.360Z,51.323410
2022-08-07T00:16:36.268Z,51.323437
2022-08-07T00:17:36.247Z,51.323410
2022-08-07T00:18:35.254Z,51.323387
2022-08-07T00:20:01.357Z,51.323391
2022-08-07T00:20:36.187Z,51.323410
2022-08-07T00:21:57.385Z,51.323402
2022-08-07T00:22:36.173Z,51.323399
2022-08-07T00:23:35.137Z,51.323391
2022-08-07T00:24:35.112Z,51.323418
2022-08-07T00:25:37.191Z,51.323406
2022-08-07T00:26:59.335Z,51.323418
2022-08-07T00:27:52.340Z,51.323429
2022-08-07T00:28:36.035Z,51.323399
2022-08-07T00:29:37.190Z,51.323399
2022-08-07T00:30:34.995Z,51.323402
2022-08-07T00:31:34.975Z,51.323425
2022-08-07T00:32:35.050Z,51.323402
2022-08-07T00:33:35.032Z,51.323395
2022-08-07T00:34:35.414Z,51.323410
2022-08-07T00:35:35.285Z,51.323395
2022-08-07T00:36:34.882Z,51.323410
2022-08-07T00:37:48.208Z,51.323383
2022-08-07T00:38:35.840Z,51.323387
2022-08-07T00:39:34.901Z,51.323383
2022-08-07T00:40:38.988Z,51.323395
2022-08-07T00:41:37.282Z,51.323387
2022-08-07T00:42:36.553Z,51.323360
2022-08-07T00:44:00.598Z,51.323353
2022-08-07T00:44:35.717Z,51.323376
2022-08-07T00:45:35.722Z,51.323395
2022-08-07T00:46:34.680Z,51.323410
2022-08-07T00:48:07.484Z,51.323399
2022-08-07T00:48:35.640Z,51.323414
2022-08-07T00:50:21.169Z,51.323414
2022-08-07T00:50:50.407Z,51.323410
2022-08-07T00:51:57.369Z,51.323406
2022-08-07T00:52:36.611Z,51.323406
2022-08-07T00:53:39.137Z,51.323391
2022-08-07T00:54:35.527Z,51.323391
2022-08-07T00:56:03.131Z,51.323418
2022-08-07T00:56:35.485Z,51.323406
2022-08-07T00:57:34.492Z,51.323410
2022-08-07T00:58:34.448Z,51.323414
2022-08-07T00:59:35.783Z,51.323425
2022-08-07T01:00:34.400Z,51.323410
2022-08-07T01:01:41.476Z,51.323391
2022-08-07T01:02:35.385Z,51.323395
2022-08-07T01:03:55.981Z,51.323402
2022-08-07T01:04:40.241Z,51.323402
2022-08-07T01:05:36.521Z,51.323414
2022-08-07T01:06:34.279Z,51.323425
2022-08-07T01:07:34.286Z,51.323425
2022-08-07T01:08:34.238Z,51.323429
2022-08-07T01:10:05.200Z,51.323414
2022-08-07T01:10:35.206Z,51.323402
2022-08-07T01:12:23.930Z,51.323421
2022-08-07T01:12:35.186Z,51.323421
2022-08-07T01:13:35.157Z,51.323448
2022-08-07T01:14:37.124Z,51.323406
2022-08-07T01:15:35.951Z,51.323399
2022-08-07T01:16:35.095Z,51.323421
2022-08-07T01:17:34.119Z,51.323425
2022-08-07T01:18:34.044Z,51.323399
2022-08-07T01:19:34.020Z,51.323402
2022-08-07T01:20:34.004Z,51.323399
2022-08-07T01:21:36.881Z,51.323395
2022-08-07T01:22:33.993Z,51.323414
2022-08-07T01:23:36.814Z,51.323410
2022-08-07T01:24:33.929Z,51.323414
2022-08-07T01:25:54.355Z,51.323383
2022-08-07T01:26:34.888Z,51.323399
2022-08-07T01:27:34.206Z,51.323399
2022-08-07T01:28:33.855Z,51.323410
2022-08-07T01:29:34.253Z,51.323410
2022-08-07T01:30:33.827Z,51.323418
2022-08-07T01:31:42.480Z,51.323421
2022-08-07T01:32:34.776Z,51.323441
2022-08-07T01:33:53.800Z,51.323414
2022-08-07T01:34:34.758Z,51.323402
2022-08-07T01:35:53.783Z,51.323399
2022-08-07T01:36:40.398Z,51.323391
2022-08-07T01:37:34.712Z,51.323429
2022-08-07T01:38:33.660Z,51.323414
2022-08-07T01:39:41.350Z,51.323395
2022-08-07T01:40:34.623Z,51.323395
2022-08-07T01:41:33.603Z,51.323406
2022-08-07T01:42:39.583Z,51.323406
2022-08-07T01:43:38.462Z,51.323414
2022-08-07T01:44:33.552Z,51.323395
2022-08-07T01:45:37.309Z,51.323399
2022-08-07T01:46:34.526Z,51.323402
2022-08-07T01:48:19.126Z,51.323402
2022-08-07T01:48:34.626Z,51.323406
2022-08-07T01:49:33.445Z,51.323399
2022-08-07T01:50:33.428Z,51.323368
2022-08-07T01:52:04.299Z,51.323376
2022-08-07T01:52:34.420Z,51.323376
2022-08-07T01:54:11.802Z,51.323410
2022-08-07T01:54:37.007Z,51.323414
2022-08-07T01:55:33.729Z,51.323410
2022-08-07T01:56:33.317Z,51.323418
2022-08-07T01:58:01.603Z,51.323425
2022-08-07T01:58:34.339Z,51.323441
2022-08-07T01:59:34.259Z,51.323448
2022-08-07T02:00:33.267Z,51.323429
2022-08-07T02:01:59.956Z,51.323433
2022-08-07T02:03:19.359Z,51.323418
2022-08-07T02:03:48.830Z,51.323406
2022-08-07T02:04:34.226Z,51.323418
2022-08-07T02:05:43.029Z,51.323406
2022-08-07T02:06:34.149Z,51.323406
2022-08-07T02:07:44.902Z,51.323414
2022-08-07T02:08:34.095Z,51.323418
2022-08-07T02:09:33.769Z,51.323421
2022-08-07T02:10:34.063Z,51.323418
2022-08-07T02:12:03.616Z,51.323410
2022-08-07T02:12:34.057Z,51.323433
2022-08-07T02:13:57.863Z,51.323418
2022-08-07T02:14:40.512Z,51.323425
2022-08-07T02:15:34.191Z,51.323441
2022-08-07T02:16:33.600Z,51.323441
2022-08-07T02:17:34.296Z,51.323414
2022-08-07T02:18:32.920Z,51.323452
2022-08-07T02:20:04.238Z,51.323433
2022-08-07T02:20:33.883Z,51.323444
2022-08-07T02:21:55.128Z,51.323463
2022-08-07T02:22:33.868Z,51.323463
2022-08-07T02:23:35.994Z,51.323437
2022-08-07T02:24:32.807Z,51.323441
2022-08-07T02:26:10.921Z,51.323475
2022-08-07T02:26:34.634Z,51.323441
2022-08-07T02:27:34.563Z,51.323479
2022-08-07T02:28:32.740Z,51.323421
2022-08-07T02:29:32.721Z,51.323448
2022-08-07T02:30:32.701Z,51.323456
2022-08-07T02:31:32.881Z,51.323437
2022-08-07T02:32:32.685Z,51.323448
2022-08-07T02:33:42.084Z,51.323441
2022-08-07T02:34:33.631Z,51.323452
2022-08-07T02:36:28.315Z,51.323433
2022-08-07T02:36:33.752Z,51.323425
2022-08-07T02:37:34.234Z,51.323441
2022-08-07T02:38:32.543Z,51.323444
2022-08-07T02:39:43.492Z,51.323425
2022-08-07T02:40:35.028Z,51.323425
2022-08-07T02:41:33.408Z,51.323463
2022-08-07T02:42:32.500Z,51.323460
2022-08-07T02:43:32.449Z,51.323425
2022-08-07T02:44:34.721Z,51.323452
2022-08-07T02:45:58.270Z,51.323429
2022-08-07T02:46:33.398Z,51.323467
2022-08-07T02:47:48.965Z,51.323425
2022-08-07T02:48:34.534Z,51.323425
2022-08-07T02:49:57.826Z,51.323444
2022-08-07T02:50:33.324Z,51.323570
2022-08-07T02:51:42.871Z,51.323486
2022-08-07T02:52:33.321Z,51.323456
2022-08-07T02:53:38.236Z,51.323452
2022-08-07T02:54:33.250Z,51.323421
2022-08-07T02:56:01.993Z,51.323418
2022-08-07T02:56:33.216Z,51.323421
2022-08-07T02:57:34.885Z,51.323463
2022-08-07T02:58:33.257Z,51.323521
2022-08-07T02:59:32.158Z,51.323437
2022-08-07T03:00:32.140Z,51.323429
2022-08-07T03:01:36.051Z,51.323441
2022-08-07T03:02:32.099Z,51.323437
2022-08-07T03:03:48.978Z,51.323414
2022-08-07T03:04:33.060Z,51.323421
2022-08-07T03:05:35.994Z,51.323463
2022-08-07T03:06:34.681Z,51.323437
2022-08-07T03:07:43.310Z,51.323452
2022-08-07T03:08:33.018Z,51.323410
2022-08-07T03:09:43.527Z,51.323441
2022-08-07T03:10:32.952Z,51.323418
2022-08-07T03:11:32.957Z,51.323444
2022-08-07T03:12:32.920Z,51.323402
2022-08-07T03:13:39.054Z,51.323471
2022-08-07T03:14:32.883Z,51.323463
2022-08-07T03:15:47.600Z,51.323441
2022-08-07T03:16:32.843Z,51.323425
2022-08-07T03:17:31.826Z,51.323444
2022-08-07T03:18:34.545Z,51.323456
2022-08-07T03:19:37.217Z,51.323433
2022-08-07T03:20:32.774Z,51.323444
2022-08-07T03:21:33.153Z,51.323444
2022-08-07T03:22:31.733Z,51.323410
2022-08-07T03:23:33.926Z,51.323410
2022-08-07T03:24:32.699Z,51.323437
2022-08-07T03:25:40.138Z,51.323471
2022-08-07T03:26:32.702Z,51.323433
2022-08-07T03:27:59.025Z,51.323425
2022-08-07T03:28:38.391Z,51.323429
2022-08-07T03:29:33.842Z,51.323444
2022-08-07T03:30:31.592Z,51.323444
2022-08-07T03:31:43.274Z,51.323448
2022-08-07T03:32:32.560Z,51.323452
2022-08-07T03:33:39.883Z,51.323437
2022-08-07T03:34:32.530Z,51.323441
2022-08-07T03:35:43.471Z,51.323399
2022-08-07T03:36:32.493Z,51.323410
2022-08-07T03:37:32.458Z,51.323433
2022-08-07T03:38:33.167Z,51.323448
2022-08-07T03:39:59.145Z,51.323444
2022-08-07T03:40:36.530Z,51.323444
2022-08-07T03:41:42.306Z,51.323433
2022-08-07T03:42:32.391Z,51.323406
2022-08-07T03:43:32.302Z,51.323433
2022-08-07T03:44:31.878Z,51.323414
2022-08-07T03:45:31.586Z,51.323433
2022-08-07T03:46:32.315Z,51.323444
2022-08-07T03:47:45.312Z,51.323441
2022-08-07T03:48:32.302Z,51.323429
2022-08-07T03:49:31.550Z,51.323406
2022-08-07T03:50:31.242Z,51.323433
2022-08-07T03:51:46.813Z,51.323429
2022-08-07T03:52:32.205Z,51.323437
2022-08-07T03:54:32.775Z,51.323425
2022-08-07T03:54:35.335Z,51.323414
2022-08-07T03:55:46.155Z,51.323406
2022-08-07T03:56:32.857Z,51.323387
2022-08-07T03:58:32.892Z,51.323383
2022-08-07T03:59:05.400Z,51.323402
2022-08-07T03:59:32.068Z,51.323425
2022-08-07T04:00:33.687Z,51.323425
2022-08-07T04:01:32.292Z,51.323425
2022-08-07T04:02:31.021Z,51.323421
2022-08-07T04:03:49.749Z,51.323456
2022-08-07T04:04:32.847Z,51.323437
2022-08-07T04:05:40.245Z,51.323399
2022-08-07T04:06:37.460Z,51.323402
2022-08-07T04:07:36.183Z,51.323414
2022-08-07T04:08:31.927Z,51.323425
2022-08-07T04:09:45.543Z,51.323418
2022-08-07T04:10:31.870Z,51.323433
2022-08-07T04:12:23.945Z,51.323433
2022-08-07T04:12:31.857Z,51.323421
2022-08-07T04:14:10.457Z,51.323425
2022-08-07T04:14:38.807Z,51.323414
2022-08-07T04:15:31.771Z,51.323418
2022-08-07T04:16:32.376Z,51.323418
2022-08-07T04:18:31.360Z,51.323433
2022-08-07T04:18:59.738Z,51.323414
2022-08-07T04:19:51.165Z,51.323418
2022-08-07T04:20:31.677Z,51.323425
2022-08-07T04:21:31.179Z,51.323425
2022-08-07T04:22:30.674Z,51.323406
2022-08-07T04:23:43.234Z,51.323421
2022-08-07T04:24:38.848Z,51.323402
2022-08-07T04:25:31.578Z,51.323414
2022-08-07T04:26:31.628Z,51.323418
2022-08-07T04:27:35.468Z,51.323410
2022-08-07T04:28:31.519Z,51.323414
2022-08-07T04:29:40.334Z,51.323406
2022-08-07T04:30:39.386Z,51.323387
2022-08-07T04:32:02.112Z,51.323391
2022-08-07T04:32:33.969Z,51.323395
2022-08-07T04:33:30.412Z,51.323402
2022-08-07T04:34:33.286Z,51.323402
2022-08-07T04:35:35.352Z,51.323406
2022-08-07T04:36:30.347Z,51.323399
2022-08-07T04:37:30.365Z,51.323406
2022-08-07T04:38:31.300Z,51.323399
2022-08-07T04:39:36.026Z,51.323402
2022-08-07T04:40:32.383Z,51.323410
2022-08-07T04:41:30.242Z,51.323425
2022-08-07T04:42:31.253Z,51.323402
2022-08-07T04:43:53.524Z,51.323402
2022-08-07T04:44:31.179Z,51.323410
2022-08-07T04:45:57.437Z,51.323433
2022-08-07T04:46:34.738Z,51.323414
2022-08-07T04:48:01.615Z,51.323387
2022-08-07T04:48:31.131Z,51.323391
2022-08-07T04:49:30.086Z,51.323399
2022-08-07T04:50:31.064Z,51.323406
2022-08-07T04:51:32.103Z,51.323441
2022-08-07T04:52:30.029Z,51.323410
2022-08-07T04:54:00.943Z,51.323410
2022-08-07T04:54:30.989Z,51.323418
2022-08-07T04:58:09.808Z,51.323433
2022-08-07T04:58:10.971Z,51.323421
2022-08-07T04:58:12.483Z,51.323437
2022-08-07T04:58:49.691Z,51.323402
2022-08-07T05:00:14.514Z,51.323414
2022-08-07T05:00:32.327Z,51.323410
2022-08-07T05:01:30.726Z,51.323418
2022-08-07T05:02:29.847Z,51.323406
2022-08-07T05:03:59.897Z,51.323410
2022-08-07T05:04:30.812Z,51.323406
2022-08-07T05:05:53.373Z,51.323433
2022-08-07T05:06:43.538Z,51.323421
2022-08-07T05:07:37.058Z,51.323402
2022-08-07T05:08:59.959Z,51.323395
2022-08-07T05:09:45.674Z,51.323410
2022-08-07T05:10:30.702Z,51.323433
2022-08-07T05:11:57.276Z,51.323444
2022-08-07T05:12:30.766Z,51.323429
2022-08-07T05:14:55.986Z,51.323452
2022-08-07T05:14:56.173Z,51.323444
2022-08-07T05:15:30.614Z,51.323437
2022-08-07T05:16:29.600Z,51.323433
2022-08-07T05:17:51.548Z,51.323460
2022-08-07T05:18:32.134Z,51.323448
2022-08-07T05:19:43.964Z,51.323410
2022-08-07T05:20:30.847Z,51.323368
2022-08-07T05:22:00.021Z,51.323391
2022-08-07T05:22:30.488Z,51.323452
2022-08-07T05:23:29.950Z,51.323429
2022-08-07T05:24:30.411Z,51.323429
2022-08-07T05:26:10.291Z,51.323410
2022-08-07T05:26:30.417Z,51.323395
2022-08-07T05:28:03.307Z,51.323399
2022-08-07T05:28:30.581Z,51.323406
2022-08-07T05:29:39.105Z,51.323429
2022-08-07T05:30:33.093Z,51.323441
2022-08-07T05:31:35.179Z,51.323448
2022-08-07T05:32:30.311Z,51.323406
2022-08-07T05:33:29.332Z,51.323402
2022-08-07T05:34:29.274Z,51.323402
2022-08-07T05:35:33.533Z,51.323406
2022-08-07T05:36:30.260Z,51.323414
2022-08-07T05:37:29.375Z,51.323429
2022-08-07T05:39:00.225Z,51.323414
2022-08-07T05:40:05.219Z,51.323414
2022-08-07T05:40:30.210Z,51.323406
2022-08-07T05:42:00.189Z,51.323425
2022-08-07T05:42:34.384Z,51.323406
2022-08-07T05:43:49.817Z,51.323383
2022-08-07T05:44:30.107Z,51.323391
2022-08-07T05:45:47.530Z,51.323425
2022-08-07T05:46:30.073Z,51.323414
2022-08-07T05:47:38.469Z,51.323410
2022-08-07T05:48:30.063Z,51.323395
2022-08-07T05:49:40.558Z,51.323460
2022-08-07T05:50:30.001Z,51.323463
2022-08-07T05:51:31.759Z,51.323471
2022-08-07T05:52:32.737Z,51.323444
2022-08-07T05:54:14.106Z,51.323433
2022-08-07T05:54:44.091Z,51.323418
2022-08-07T05:56:01.844Z,51.323429
2022-08-07T05:56:30.324Z,51.323444
2022-08-07T05:57:29.887Z,51.323441
2022-08-07T05:58:36.614Z,51.323414
2022-08-07T05:59:29.847Z,51.323425
2022-08-07T06:00:29.830Z,51.323406
2022-08-07T06:01:34.788Z,51.323406
2022-08-07T06:02:30.672Z,51.323421
2022-08-07T06:03:53.559Z,51.323425
2022-08-07T06:04:30.383Z,51.323425
2022-08-07T06:05:28.783Z,51.323448
2022-08-07T06:06:30.000Z,51.323421
2022-08-07T06:08:14.916Z,51.323406
2022-08-07T06:08:31.603Z,51.323410
2022-08-07T06:10:03.162Z,51.323387
2022-08-07T06:10:29.660Z,51.323406
2022-08-07T06:11:28.713Z,51.323467
2022-08-07T06:12:33.250Z,51.323452
2022-08-07T06:14:10.941Z,51.323414
2022-08-07T06:14:30.295Z,51.323433
2022-08-07T06:15:42.567Z,51.323395
2022-08-07T06:16:29.559Z,51.323376
2022-08-07T06:17:28.543Z,51.323421
2022-08-07T06:18:28.554Z,51.323452
2022-08-07T06:19:52.423Z,51.323475
2022-08-07T06:20:49.946Z,51.323399
2022-08-07T06:22:16.022Z,51.323456
2022-08-07T06:22:29.466Z,51.323441
2022-08-07T06:24:38.036Z,51.323441
2022-08-07T06:24:45.840Z,51.323452
2022-08-07T06:25:34.795Z,51.323444
2022-08-07T06:26:29.402Z,51.323399
2022-08-07T06:27:44.106Z,51.323448
2022-08-07T06:28:29.389Z,51.323448
2022-08-07T06:29:29.368Z,51.323441
2022-08-07T06:30:37.511Z,51.323433
2022-08-07T06:31:38.575Z,51.323418
2022-08-07T06:32:29.501Z,51.323433
2022-08-07T06:33:29.785Z,51.323452
2022-08-07T06:34:30.435Z,51.323463
2022-08-07T06:35:30.587Z,51.323456
2022-08-07T06:36:35.281Z,51.323448
2022-08-07T06:37:43.598Z,51.323437
2022-08-07T06:38:30.346Z,51.323421
2022-08-07T06:40:16.390Z,51.323444
2022-08-07T06:40:34.279Z,51.323418
2022-08-07T06:42:00.677Z,51.323429
2022-08-07T06:42:35.007Z,51.323437
2022-08-07T06:43:39.222Z,51.323444
2022-08-07T06:44:31.177Z,51.323471
2022-08-07T06:45:29.098Z,51.323483
2022-08-07T06:46:31.261Z,51.323456
2022-08-07T06:47:48.096Z,51.323448
2022-08-07T06:48:29.083Z,51.323444
2022-08-07T06:49:28.054Z,51.323456
2022-08-07T06:50:28.018Z,51.323467
2022-08-07T06:51:33.171Z,51.323429
2022-08-07T06:52:31.255Z,51.323414
2022-08-07T06:55:29.297Z,51.323429
2022-08-07T06:55:31.569Z,51.323448
2022-08-07T06:56:00.537Z,51.323433
2022-08-07T06:56:28.930Z,51.323456
2022-08-07T06:57:39.833Z,51.323444
2022-08-07T06:58:28.974Z,51.323448
2022-08-07T07:00:12.382Z,51.323441
2022-08-07T07:00:28.864Z,51.323441
2022-08-07T07:01:32.998Z,51.323444
2022-08-07T07:02:53.516Z,51.323433
2022-08-07T07:03:48.640Z,51.323448
2022-08-07T07:04:33.337Z,51.323448
2022-08-07T07:06:02.763Z,51.323456
2022-08-07T07:06:28.776Z,51.323433
2022-08-07T07:07:59.903Z,51.323444
2022-08-07T07:08:28.944Z,51.323448
2022-08-07T07:09:31.074Z,51.323452
2022-08-07T07:10:27.710Z,51.323483
2022-08-07T07:12:07.404Z,51.323441
2022-08-07T07:12:31.489Z,51.323429
2022-08-07T07:13:55.606Z,51.323441
2022-08-07T07:14:28.647Z,51.323444
2022-08-07T07:15:32.559Z,51.323429
2022-08-07T07:16:30.510Z,51.323433
2022-08-07T07:17:28.770Z,51.323425
2022-08-07T07:18:47.073Z,51.323433
2022-08-07T07:19:55.717Z,51.323441
2022-08-07T07:20:28.562Z,51.323444
2022-08-07T07:22:05.373Z,51.323444
2022-08-07T07:22:34.010Z,51.323460
2022-08-07T07:24:08.775Z,51.323452
2022-08-07T07:24:28.496Z,51.323471
2022-08-07T07:26:32.488Z,51.323456
2022-08-07T07:26:34.831Z,51.323460
2022-08-07T07:27:35.617Z,51.323460
2022-08-07T07:28:42.787Z,51.323452
2022-08-07T07:29:39.320Z,51.323463
2022-08-07T07:30:38.104Z,51.323467
2022-08-07T07:31:30.501Z,51.323483
2022-08-07T07:32:28.375Z,51.323467
2022-08-07T07:33:27.361Z,51.323452
2022-08-07T07:34:31.108Z,51.323475
2022-08-07T07:35:27.330Z,51.323448
2022-08-07T07:36:32.743Z,51.323441
2022-08-07T07:37:45.367Z,51.323460
2022-08-07T07:38:28.272Z,51.323460
2022-08-07T07:39:45.750Z,51.323460
2022-08-07T07:40:28.248Z,51.323452
2022-08-07T07:41:31.009Z,51.323456
2022-08-07T07:42:32.921Z,51.323463
2022-08-07T07:44:14.766Z,51.323467
2022-08-07T07:44:28.214Z,51.323471
2022-08-07T07:46:37.489Z,51.323475
2022-08-07T07:46:38.457Z,51.323498
2022-08-07T07:47:28.148Z,51.323483
2022-08-07T07:48:35.690Z,51.323494
2022-08-07T07:50:33.757Z,51.323467
2022-08-07T07:50:34.815Z,51.323460
2022-08-07T07:51:28.083Z,51.323460
2022-08-07T07:52:27.401Z,51.323460
2022-08-07T07:53:27.052Z,51.323456
2022-08-07T07:54:27.060Z,51.323471
2022-08-07T07:55:27.018Z,51.323460
2022-08-07T07:56:30.193Z,51.323448
2022-08-07T07:57:52.433Z,51.323456
2022-08-07T07:58:28.015Z,51.323456
2022-08-07T07:59:51.798Z,51.323437
2022-08-07T08:00:29.869Z,51.323437
2022-08-07T08:02:02.085Z,51.323448
2022-08-07T08:02:35.325Z,51.323444
2022-08-07T08:04:09.986Z,51.323460
2022-08-07T08:04:27.977Z,51.323467
2022-08-07T08:05:30.280Z,51.323475
2022-08-07T08:06:27.847Z,51.323460
2022-08-07T08:07:35.606Z,51.323448
2022-08-07T08:08:35.554Z,51.323414
2022-08-07T08:09:29.324Z,51.323441
2022-08-07T08:10:37.773Z,51.323441
2022-08-07T08:12:00.079Z,51.323433
2022-08-07T08:12:51.600Z,51.323463
2022-08-07T08:13:36.547Z,51.323452
2022-08-07T08:14:27.754Z,51.323463
2022-08-07T08:15:26.721Z,51.323433
2022-08-07T08:16:26.721Z,51.323456
2022-08-07T08:17:58.221Z,51.323441
2022-08-07T08:18:27.669Z,51.323448
2022-08-07T08:20:17.399Z,51.323448
2022-08-07T08:20:31.778Z,51.323444
2022-08-07T08:22:00.745Z,51.323452
2022-08-07T08:22:32.573Z,51.323444
2022-08-07T08:23:27.987Z,51.323444
2022-08-07T08:24:36.248Z,51.323433
2022-08-07T08:25:42.539Z,51.323448
2022-08-07T08:26:27.546Z,51.323452
2022-08-07T08:27:26.537Z,51.323456
2022-08-07T08:28:37.779Z,51.323437
2022-08-07T08:29:27.527Z,51.323433
2022-08-07T08:30:26.490Z,51.323475
2022-08-07T08:31:59.345Z,51.323475
2022-08-07T08:32:38.602Z,51.323479
2022-08-07T08:33:28.756Z,51.323460
2022-08-07T08:34:28.978Z,51.323467
2022-08-07T08:35:28.822Z,51.323460
2022-08-07T08:36:29.630Z,51.323471
2022-08-07T08:38:00.550Z,51.323452
2022-08-07T08:38:29.965Z,51.323452
2022-08-07T08:39:39.359Z,51.323471
2022-08-07T08:40:28.648Z,51.323463
2022-08-07T08:41:26.319Z,51.323437
2022-08-07T08:42:27.309Z,51.323471
2022-08-07T08:43:41.821Z,51.323463
2022-08-07T08:44:29.436Z,51.323471
2022-08-07T08:45:26.644Z,51.323483
2022-08-07T08:46:27.242Z,51.323483
2022-08-07T08:47:26.230Z,51.323460
2022-08-07T08:48:28.444Z,51.323452
2022-08-07T08:49:32.664Z,51.323471
2022-08-07T08:50:35.324Z,51.323437
2022-08-07T08:51:49.307Z,51.323475
2022-08-07T08:52:32.106Z,51.323490
2022-08-07T08:53:29.417Z,51.323483
2022-08-07T08:54:26.106Z,51.323471
2022-08-07T08:55:55.018Z,51.323463
2022-08-07T08:56:27.074Z,51.323448
2022-08-07T08:57:26.056Z,51.323467
2022-08-07T08:58:28.714Z,51.323441
2022-08-07T08:59:26.048Z,51.323448
2022-08-07T09:00:28.774Z,51.323448
2022-08-07T09:01:29.824Z,51.323437
2022-08-07T09:02:35.266Z,51.323437
2022-08-07T09:03:48.054Z,51.323456
2022-08-07T09:04:30.068Z,51.323456
2022-08-07T09:05:36.773Z,51.323460
2022-08-07T09:06:28.047Z,51.323463
2022-08-07T09:07:25.893Z,51.323460
2022-08-07T09:08:28.847Z,51.323448
2022-08-07T09:09:33.255Z,51.323463
2022-08-07T09:10:26.841Z,51.323444
2022-08-07T09:11:50.791Z,51.323433
2022-08-07T09:12:31.341Z,51.323452
2022-08-07T09:13:36.998Z,51.323463
2022-08-07T09:14:27.555Z,51.323471
2022-08-07T09:16:22.654Z,51.323437
2022-08-07T09:16:29.925Z,51.323437
2022-08-07T09:17:26.879Z,51.323433
2022-08-07T09:18:26.916Z,51.323448
2022-08-07T09:19:50.701Z,51.323448
2022-08-07T09:20:35.496Z,51.323452
2022-08-07T09:21:34.122Z,51.323475
2022-08-07T09:24:28.966Z,51.323456
2022-08-07T09:24:30.449Z,51.323437
2022-08-07T09:24:33.424Z,51.323429
2022-08-07T09:25:26.590Z,51.323429
2022-08-07T09:26:25.572Z,51.323433
2022-08-07T09:27:27.308Z,51.323441
2022-08-07T09:30:01.000Z,51.323441
2022-08-07T09:30:03.524Z,51.323437
2022-08-07T09:30:28.076Z,51.323421
2022-08-07T09:31:25.482Z,51.323410
2022-08-07T09:32:26.684Z,51.323414
2022-08-07T09:33:52.384Z,51.323433
2022-08-07T09:34:27.345Z,51.323433
2022-08-07T09:36:02.952Z,51.323425
2022-08-07T09:36:27.050Z,51.323410
2022-08-07T09:37:33.533Z,51.323418
2022-08-07T09:38:26.354Z,51.323406
2022-08-07T09:39:53.928Z,51.323425
2022-08-07T09:40:26.377Z,51.323433
2022-08-07T09:41:25.306Z,51.323421
2022-08-07T09:42:25.303Z,51.323410
2022-08-07T09:43:40.031Z,51.323410
2022-08-07T09:44:32.839Z,51.323414
2022-08-07T09:47:23.773Z,51.323414
2022-08-07T09:47:51.947Z,51.323429
2022-08-07T09:47:57.800Z,51.323410
2022-08-07T09:48:30.169Z,51.323406
2022-08-07T09:50:02.768Z,51.323406
2022-08-07T09:50:26.545Z,51.323410
2022-08-07T09:52:09.873Z,51.323418
2022-08-07T09:52:34.685Z,51.323402
2022-08-07T09:53:26.196Z,51.323410
2022-08-07T09:54:27.164Z,51.323410
2022-08-07T09:55:29.620Z,51.323402
2022-08-07T09:56:37.651Z,51.323410
2022-08-07T09:57:27.300Z,51.323414
2022-08-07T09:58:31.903Z,51.323410
2022-08-07T09:59:35.875Z,51.323391
2022-08-07T10:00:29.867Z,51.323387
2022-08-07T10:01:52.052Z,51.323395
2022-08-07T10:02:29.821Z,51.323387
2022-08-07T10:04:06.048Z,51.323402
2022-08-07T10:04:28.101Z,51.323414
2022-08-07T10:05:29.677Z,51.323421
2022-08-07T10:06:25.967Z,51.323414
2022-08-07T10:07:26.101Z,51.323402
2022-08-07T10:08:24.841Z,51.323418
2022-08-07T10:09:42.888Z,51.323410
2022-08-07T10:10:28.282Z,51.323406
2022-08-07T10:12:01.070Z,51.323406
2022-08-07T10:12:26.350Z,51.323402
2022-08-07T10:13:55.571Z,51.323406
2022-08-07T10:14:31.042Z,51.323418
2022-08-07T10:15:24.727Z,51.323406
2022-08-07T10:16:24.707Z,51.323410
2022-08-07T10:17:24.729Z,51.323387
2022-08-07T10:18:26.445Z,51.323383
2022-08-07T10:19:24.670Z,51.323395
2022-08-07T10:20:30.448Z,51.323406
2022-08-07T10:22:14.399Z,51.323391
2022-08-07T10:22:33.849Z,51.323387
2022-08-07T10:24:05.122Z,51.323406
2022-08-07T10:24:25.581Z,51.323410
2022-08-07T10:25:24.538Z,51.323418
2022-08-07T10:26:25.519Z,51.323414
2022-08-07T10:27:24.501Z,51.323414
2022-08-07T10:28:25.482Z,51.323406
2022-08-07T10:29:24.494Z,51.323395
2022-08-07T10:30:26.414Z,51.323414
2022-08-07T10:31:24.430Z,51.323402
2022-08-07T10:32:51.495Z,51.323414
2022-08-07T10:34:06.351Z,51.323402
2022-08-07T10:34:31.730Z,51.323387
2022-08-07T10:35:25.686Z,51.323380
2022-08-07T10:36:29.654Z,51.323387
2022-08-07T10:37:48.796Z,51.323399
2022-08-07T10:38:42.345Z,51.323383
2022-08-07T10:39:25.677Z,51.323380
2022-08-07T10:40:30.358Z,51.323395
2022-08-07T10:41:51.790Z,51.323364
2022-08-07T10:42:31.322Z,51.323376
2022-08-07T10:43:34.728Z,51.323399
2022-08-07T10:44:33.855Z,51.323391
2022-08-07T10:45:45.294Z,51.323387
2022-08-07T10:46:26.170Z,51.323406
2022-08-07T10:47:50.648Z,51.323380
2022-08-07T10:48:25.137Z,51.323395
2022-08-07T10:49:49.198Z,51.323406
2022-08-07T10:50:25.819Z,51.323441
2022-08-07T10:51:39.209Z,51.323437
2022-08-07T10:52:31.713Z,51.323429
2022-08-07T10:53:25.049Z,51.323402
2022-08-07T10:54:24.054Z,51.323372
2022-08-07T10:55:36.841Z,51.323410
2022-08-07T10:56:30.945Z,51.323402
2022-08-07T10:57:34.835Z,51.323429
2022-08-07T10:58:33.042Z,51.323395
2022-08-07T10:59:24.967Z,51.323444
2022-08-07T11:00:39.357Z,51.323463
2022-08-07T11:01:25.058Z,51.323429
2022-08-07T11:02:33.012Z,51.323391
2022-08-07T11:03:28.150Z,51.323376
2022-08-07T11:04:31.870Z,51.323334
2022-08-07T11:05:35.677Z,51.323353
2022-08-07T11:06:26.909Z,51.323368
2022-08-07T11:07:56.564Z,51.323414
2022-08-07T11:08:29.042Z,51.323421
2022-08-07T11:10:09.619Z,51.323391
2022-08-07T11:10:27.453Z,51.323402
2022-08-07T11:11:23.732Z,51.323364
2022-08-07T11:12:31.817Z,51.323334
2022-08-07T11:14:42.472Z,51.323338
2022-08-07T11:14:44.914Z,51.323326
2022-08-07T11:15:31.395Z,51.323299
2022-08-07T11:16:29.746Z,51.323349
2022-08-07T11:17:43.173Z,51.323360
2022-08-07T11:18:24.593Z,51.323360
2022-08-07T11:19:27.107Z,51.323303
2022-08-07T11:20:24.399Z,51.323303
2022-08-07T11:21:23.547Z,51.323330
2022-08-07T11:22:32.288Z,51.323437
2022-08-07T11:23:30.352Z,51.323425
2022-08-07T11:24:24.515Z,51.323421